Flight Briefing for CPX245

Departure Arrival
Miami International Airport (KMIA)
Click to view FAA NOTAMS
Norman Manley International Airport (MKJP)
Click to view FAA NOTAMS
Departure Time Arrival Time
N/A N/A
Aircraft Distance
B767-300BDSF 518nm
Departure METAR Arrival METAR
KMIA 152153Z 12006KT 10SM SCT035 SCT055 OVC250 25/19 A2993 RMK AO2 SLP136 T02500194 MKJP 152200Z 13009KT 9999 FEW022 27/23 Q1011
Suggested Route
EONNS2 EONNS A509 URSUS UA301 MLY


View recent IFR Routes data
Notes



Charts and Procedures

Charts for KMIA
No chart available
Charts for MKJP
No chart available

Ventusky Weather